Ely, MN

6:51 PM CDT on March 29, 2015 (GMT -0500)
Ely Municipal | | Change Station
CLOSE
Current Station
Airport
Location: Ely,
Elevation: 1453 ft
Nearby Weather Stations

Elev 1453 ft 47.82 °N, 91.83 °W | Updated 19 minutes ago

Overcast
Overcast
39 °F
Feels Like 32 °F
N
10
Wind Variable Wind from WNW
Gusts 20 mph

Today
High -- | Low -- °F
--% Chance of Precip.
Yesterday
High -- | Low -- °F
Precip. -- in
6:52 AM 7:33 PM
Waxing Gibbous, 75% visible
Pressure 29.71 in
Visibility 10.0 miles
Clouds Overcast 5000 ft
Windchill 32 °F
Dew Point 28 °F
Humidity 65%
Rainfall 0.35 in
Snow Depth Not available.
UV 0 out of 12
Pollen .30 out of 12
Air Quality Not available.
Flu Activity Not available.
METAR KELO 292332Z AUTO 30009G17KT 270V340 10SM OVC050 04/M02 A2971 RMK AO2

More Conditions Fewer Conditions

Pressure 29.71 in
Visibility 10.0 miles
Clouds Overcast 5000 ft
Windchill 32 °F
Dew Point 28 °F
Humidity 65%
Rainfall 0.35 in
Snow Depth Not available.
UV 0 out of 12
Pollen .30 out of 12
Air Quality Not available.
Flu Activity Not available.
METAR KELO 292332Z AUTO 30009G17KT 270V340 10SM OVC050 04/M02 A2971 RMK AO2

More Conditions Fewer Conditions

10-Day Weather Forecast

Almanac

Astronomy

Mar. 29, 2015 Rise Set
Actual Time
Civil Twilight
Nautical Twilight
Astronomical Twilight
Moon
Length of Visible Light
Length of Day
Tomorrow will be .
, % of the Moon is Illuminated

Today's Extremes

State Highs State Lows

Community

WunderPhotos

Upload Photos

1,809,380 photos uploaded!

WunderBlogs® & News

Nearby

Air Quality

  Air Quality AQ Index Pollutant
Not available.

Snow Depth

Station Depth Elevation

Earthquake Activity

City Distance Mag. Time & Date
Minimum magnitude displayed is 2.5.

Coastal Water Temperatures

Place Temperature

Stations

Nearby Weather Stations

Station Location Temp. Windchill Dew Point Humidity Wind Precip. Elev Updated Type